Accueil
METAR-TAF:

METAR-TAF

Aéroports :

Powell River, Colombie-Britannique, Canada

latitude: 49-50N, longitude: 124-30W, altitude: 130 m

Observation

Le bulletin a été fait il y a 24 minutes, à 15:00 UTC
Vent 4 kt de est/sud-est, variant entre est/nord-est et sud-est
Température 13°C
Humidité 94%
Pression 1015 hPa
Visibilité: 32.2 km
Quelques nuages à une hauteur de 200 ft
Quelques nuages à une hauteur de 600 ft
Nuages épars à une hauteur de 1800 ft
Ciel couvert à une hauteur de 2600 ft

METAR: CYPW 201500Z 11004KT 070V140 20SM FEW002 FEW006 SCT018 OVC026 13/12 A2997 RMK SF1SC1SC2SC4 VIS N-NE 5 LO CLD AND BR SLP152

Heure: 08:24 (15:24 UTC)


TAF: absent

Observations et prévisions météorologiques de plus de 4000 aéroports (messages METAR et TAF).

Les stations disponibles sont représentées par des disques jaunes et rouges sur la carte.

Passer la souris dessus pour voir le nom de la station.

Cliquer dessus pour voir les observations et prévisions météorologiques.

Pour changer de carte: cliquez sur les boutons verts avec une croix noire pour zoomer, sur le bouton vert avec un tiret pour effectuer un zoom arrière, ou sur les flèches vertes pour les cartes adjacentes.


METAR-TAF: